sensor_id;sensor_type;location;lat;lon;timestamp;pressure;altitude;pressure_sealevel;temperature;humidity
74169;BME280;62523;53.336;83.690;2022-11-06T00:03:21;99422.19;;;-0.03;100.00
74169;BME280;62523;53.336;83.690;2022-11-06T00:08:36;99399.69;;;0.03;100.00
74169;BME280;62523;53.336;83.690;2022-11-06T00:13:39;99406.63;;;-0.01;100.00
74169;BME280;62523;53.336;83.690;2022-11-06T00:18:40;99409.09;;;0.10;100.00
74169;BME280;62523;53.336;83.690;2022-11-06T00:23:42;99413.41;;;0.11;100.00
74169;BME280;62523;53.336;83.690;2022-11-06T00:28:44;99398.84;;;0.01;100.00
74169;BME280;62523;53.336;83.690;2022-11-06T00:33:46;99417.09;;;-0.10;100.00
74169;BME280;62523;53.336;83.690;2022-11-06T00:38:51;99405.06;;;-0.13;100.00
74169;BME280;62523;53.336;83.690;2022-11-06T00:43:56;99402.22;;;0.07;100.00
74169;BME280;62523;53.336;83.690;2022-11-06T00:48:58;99411.88;;;-0.09;100.00
74169;BME280;62523;53.336;83.690;2022-11-06T00:54:01;99404.88;;;-0.01;100.00
74169;BME280;62523;53.336;83.690;2022-11-06T00:59:06;99399.06;;;-0.19;100.00
74169;BME280;62523;53.336;83.690;2022-11-06T01:04:14;99393.81;;;-0.13;100.00
74169;BME280;62523;53.336;83.690;2022-11-06T01:09:18;99374.97;;;-0.25;100.00
74169;BME280;62523;53.336;83.690;2022-11-06T01:14:21;99364.56;;;-0.20;100.00
74169;BME280;62523;53.336;83.690;2022-11-06T01:19:22;99369.53;;;-0.02;100.00
74169;BME280;62523;53.336;83.690;2022-11-06T01:24:26;99357.34;;;0.05;100.00
74169;BME280;62523;53.336;83.690;2022-11-06T01:29:27;99363.31;;;0.12;100.00
74169;BME280;62523;53.336;83.690;2022-11-06T01:34:29;99349.38;;;0.19;100.00
74169;BME280;62523;53.336;83.690;2022-11-06T01:39:30;99344.09;;;0.28;100.00
74169;BME280;62523;53.336;83.690;2022-11-06T01:49:37;99345.31;;;0.61;99.72
74169;BME280;62523;53.336;83.690;2022-11-06T01:54:40;99352.34;;;0.53;99.85
74169;BME280;62523;53.336;83.690;2022-11-06T01:59:44;99354.94;;;0.53;100.00
74169;BME280;62523;53.336;83.690;2022-11-06T02:04:47;99357.56;;;0.52;100.00
74169;BME280;62523;53.336;83.690;2022-11-06T02:09:48;99359.03;;;0.67;100.00
74169;BME280;62523;53.336;83.690;2022-11-06T02:15:23;99366.94;;;0.60;100.00
74169;BME280;62523;53.336;83.690;2022-11-06T02:20:38;99354.91;;;0.56;100.00
74169;BME280;62523;53.336;83.690;2022-11-06T02:26:07;99361.19;;;0.40;100.00
74169;BME280;62523;53.336;83.690;2022-11-06T02:31:16;99358.56;;;0.42;100.00
74169;BME280;62523;53.336;83.690;2022-11-06T02:36:26;99355.94;;;0.45;100.00
74169;BME280;62523;53.336;83.690;2022-11-06T02:41:36;99348.91;;;0.53;100.00
74169;BME280;62523;53.336;83.690;2022-11-06T02:46:44;99344.41;;;0.64;100.00
74169;BME280;62523;53.336;83.690;2022-11-06T02:51:50;99353.09;;;0.61;100.00
74169;BME280;62523;53.336;83.690;2022-11-06T02:56:57;99360.03;;;0.59;100.00
74169;BME280;62523;53.336;83.690;2022-11-06T03:02:03;99355.81;;;0.52;100.00
74169;BME280;62523;53.336;83.690;2022-11-06T03:07:42;99362.16;;;0.31;100.00
74169;BME280;62523;53.336;83.690;2022-11-06T03:12:56;99370.88;;;0.27;100.00
74169;BME280;62523;53.336;83.690;2022-11-06T03:18:08;99365.00;;;0.14;100.00
74169;BME280;62523;53.336;83.690;2022-11-06T03:28:54;99362.41;;;0.13;100.00
74169;BME280;62523;53.336;83.690;2022-11-06T03:34:02;99352.13;;;0.08;100.00
74169;BME280;62523;53.336;83.690;2022-11-06T03:39:07;99360.63;;;0.19;100.00
74169;BME280;62523;53.336;83.690;2022-11-06T03:44:14;99342.28;;;0.33;98.24
74169;BME280;62523;53.336;83.690;2022-11-06T03:49:23;99343.56;;;0.64;95.91
74169;BME280;62523;53.336;83.690;2022-11-06T03:54:34;99341.28;;;0.42;93.27
74169;BME280;62523;53.336;83.690;2022-11-06T03:59:46;99317.13;;;0.38;91.94
74169;BME280;62523;53.336;83.690;2022-11-06T04:04:53;99326.03;;;0.20;91.10
74169;BME280;62523;53.336;83.690;2022-11-06T04:09:59;99340.78;;;0.17;91.05
74169;BME280;62523;53.336;83.690;2022-11-06T04:15:20;99343.50;;;0.08;90.16
74169;BME280;62523;53.336;83.690;2022-11-06T04:20:23;99353.00;;;0.07;89.67
74169;BME280;62523;53.336;83.690;2022-11-06T04:25:59;99336.34;;;0.25;89.61
74169;BME280;62523;53.336;83.690;2022-11-06T04:32:21;99342.34;;;0.27;87.47
74169;BME280;62523;53.336;83.690;2022-11-06T04:47:14;99339.53;;;0.43;82.27
74169;BME280;62523;53.336;83.690;2022-11-06T04:52:24;99333.34;;;0.54;81.08
74169;BME280;62523;53.336;83.690;2022-11-06T04:57:25;99318.88;;;0.38;78.41
74169;BME280;62523;53.336;83.690;2022-11-06T05:02:27;99315.31;;;0.45;78.03
74169;BME280;62523;53.336;83.690;2022-11-06T05:07:28;99309.03;;;0.60;77.90
74169;BME280;62523;53.336;83.690;2022-11-06T05:12:29;99318.72;;;0.50;75.90
74169;BME280;62523;53.336;83.690;2022-11-06T05:17:30;99321.53;;;0.35;75.87
74169;BME280;62523;53.336;83.690;2022-11-06T05:22:31;99336.00;;;0.50;76.00
74169;BME280;62523;53.336;83.690;2022-11-06T05:27:51;99344.78;;;0.38;76.71
74169;BME280;62523;53.336;83.690;2022-11-06T05:32:53;99346.28;;;0.54;76.56
74169;BME280;62523;53.336;83.690;2022-11-06T05:38:01;99344.13;;;0.24;74.32
74169;BME280;62523;53.336;83.690;2022-11-06T05:43:03;99339.94;;;0.15;73.75
74169;BME280;62523;53.336;83.690;2022-11-06T05:48:04;99345.78;;;0.31;73.16
74169;BME280;62523;53.336;83.690;2022-11-06T05:53:05;99338.91;;;0.28;72.19
74169;BME280;62523;53.336;83.690;2022-11-06T05:58:06;99343.06;;;0.38;71.65
74169;BME280;62523;53.336;83.690;2022-11-06T06:03:08;99361.25;;;0.34;71.14
74169;BME280;62523;53.336;83.690;2022-11-06T06:08:10;99340.28;;;0.51;70.92
74169;BME280;62523;53.336;83.690;2022-11-06T06:13:12;99335.00;;;0.58;71.06
74169;BME280;62523;53.336;83.690;2022-11-06T06:18:14;99309.50;;;0.84;70.28
74169;BME280;62523;53.336;83.690;2022-11-06T06:23:15;99321.91;;;0.66;70.87
74169;BME280;62523;53.336;83.690;2022-11-06T06:28:16;99311.84;;;0.99;69.10
74169;BME280;62523;53.336;83.690;2022-11-06T06:33:18;99321.06;;;0.64;69.89
74169;BME280;62523;53.336;83.690;2022-11-06T06:38:19;99321.16;;;0.58;69.76
74169;BME280;62523;53.336;83.690;2022-11-06T06:43:20;99321.06;;;0.66;70.41
74169;BME280;62523;53.336;83.690;2022-11-06T06:48:34;99320.09;;;0.71;69.86
74169;BME280;62523;53.336;83.690;2022-11-06T06:53:36;99308.66;;;0.85;69.28
74169;BME280;62523;53.336;83.690;2022-11-06T06:58:40;99308.66;;;0.83;69.12
74169;BME280;62523;53.336;83.690;2022-11-06T07:03:42;99319.97;;;0.77;70.35
74169;BME280;62523;53.336;83.690;2022-11-06T07:08:43;99307.84;;;0.79;71.56
74169;BME280;62523;53.336;83.690;2022-11-06T07:13:44;99310.22;;;0.93;72.25
74169;BME280;62523;53.336;83.690;2022-11-06T07:18:45;99298.28;;;0.83;71.81
74169;BME280;62523;53.336;83.690;2022-11-06T07:23:47;99294.94;;;0.78;70.02
74169;BME280;62523;53.336;83.690;2022-11-06T07:28:48;99289.84;;;0.72;70.42
74169;BME280;62523;53.336;83.690;2022-11-06T07:33:49;99293.44;;;0.63;68.85
74169;BME280;62523;53.336;83.690;2022-11-06T07:38:50;99287.16;;;0.76;67.95
74169;BME280;62523;53.336;83.690;2022-11-06T07:43:51;99283.81;;;0.70;67.32
74169;BME280;62523;53.336;83.690;2022-11-06T07:48:52;99270.19;;;0.58;68.17
74169;BME280;62523;53.336;83.690;2022-11-06T07:53:54;99294.56;;;0.47;68.87
74169;BME280;62523;53.336;83.690;2022-11-06T07:58:56;99300.66;;;0.44;67.34
74169;BME280;62523;53.336;83.690;2022-11-06T08:03:57;99295.31;;;0.53;67.17
74169;BME280;62523;53.336;83.690;2022-11-06T08:08:59;99297.97;;;0.49;67.08
74169;BME280;62523;53.336;83.690;2022-11-06T08:14:00;99291.22;;;0.38;68.08
74169;BME280;62523;53.336;83.690;2022-11-06T08:19:02;99291.97;;;0.47;68.29
74169;BME280;62523;53.336;83.690;2022-11-06T08:24:03;99287.63;;;0.49;68.70
74169;BME280;62523;53.336;83.690;2022-11-06T08:29:04;99293.94;;;0.31;69.55
74169;BME280;62523;53.336;83.690;2022-11-06T08:34:05;99292.81;;;0.47;70.01
74169;BME280;62523;53.336;83.690;2022-11-06T08:39:08;99288.53;;;0.46;69.67
74169;BME280;62523;53.336;83.690;2022-11-06T08:44:09;99283.06;;;0.63;70.09
74169;BME280;62523;53.336;83.690;2022-11-06T08:49:11;99290.88;;;0.61;70.74
74169;BME280;62523;53.336;83.690;2022-11-06T08:54:12;99292.81;;;0.49;70.57
74169;BME280;62523;53.336;83.690;2022-11-06T08:59:13;99294.31;;;0.62;70.03
74169;BME280;62523;53.336;83.690;2022-11-06T09:04:14;99307.50;;;0.50;71.12
74169;BME280;62523;53.336;83.690;2022-11-06T09:09:15;99305.00;;;0.42;71.47
74169;BME280;62523;53.336;83.690;2022-11-06T09:14:16;99329.34;;;0.32;71.12
74169;BME280;62523;53.336;83.690;2022-11-06T09:19:18;99320.81;;;0.24;73.85
74169;BME280;62523;53.336;83.690;2022-11-06T09:24:19;99313.25;;;0.08;75.58
74169;BME280;62523;53.336;83.690;2022-11-06T09:29:20;99303.31;;;-0.21;75.92
74169;BME280;62523;53.336;83.690;2022-11-06T09:34:22;99311.16;;;-0.27;76.68
74169;BME280;62523;53.336;83.690;2022-11-06T09:39:23;99308.47;;;-0.21;76.30
74169;BME280;62523;53.336;83.690;2022-11-06T09:49:53;99296.72;;;0.17;73.36
74169;BME280;62523;53.336;83.690;2022-11-06T09:54:59;99315.91;;;0.07;72.84
74169;BME280;62523;53.336;83.690;2022-11-06T10:00:03;99323.63;;;0.08;72.54
74169;BME280;62523;53.336;83.690;2022-11-06T10:05:26;99337.53;;;0.03;72.30
74169;BME280;62523;53.336;83.690;2022-11-06T10:21:41;99356.19;;;-0.40;74.90
74169;BME280;62523;53.336;83.690;2022-11-06T10:27:16;99357.31;;;-0.68;76.08
74169;BME280;62523;53.336;83.690;2022-11-06T10:37:39;99378.22;;;-0.89;79.55
74169;BME280;62523;53.336;83.690;2022-11-06T10:42:50;99391.16;;;-0.88;82.30
74169;BME280;62523;53.336;83.690;2022-11-06T10:48:20;99384.44;;;-1.10;84.24
74169;BME280;62523;53.336;83.690;2022-11-06T10:58:41;99399.03;;;-1.08;85.80
74169;BME280;62523;53.336;83.690;2022-11-06T11:03:45;99399.13;;;-1.15;85.75
74169;BME280;62523;53.336;83.690;2022-11-06T11:08:48;99402.63;;;-1.22;87.19
74169;BME280;62523;53.336;83.690;2022-11-06T11:14:18;99420.81;;;-1.36;88.46
74169;BME280;62523;53.336;83.690;2022-11-06T11:24:26;99392.56;;;-1.69;93.08
74169;BME280;62523;53.336;83.690;2022-11-06T11:29:55;99388.28;;;-1.70;93.65
74169;BME280;62523;53.336;83.690;2022-11-06T11:34:57;99390.88;;;-1.74;93.11
74169;BME280;62523;53.336;83.690;2022-11-06T11:40:18;99388.22;;;-1.62;93.76
74169;BME280;62523;53.336;83.690;2022-11-06T11:45:23;99379.78;;;-1.90;95.84
74169;BME280;62523;53.336;83.690;2022-11-06T11:50:29;99397.00;;;-1.91;96.52
74169;BME280;62523;53.336;83.690;2022-11-06T11:55:38;99412.50;;;-1.95;97.62
74169;BME280;62523;53.336;83.690;2022-11-06T12:00:51;99428.81;;;-1.86;98.68
74169;BME280;62523;53.336;83.690;2022-11-06T12:06:03;99438.31;;;-1.91;98.68
74169;BME280;62523;53.336;83.690;2022-11-06T12:11:06;99431.41;;;-1.92;97.71
74169;BME280;62523;53.336;83.690;2022-11-06T12:16:14;99433.97;;;-1.78;96.26
74169;BME280;62523;53.336;83.690;2022-11-06T12:21:21;99435.66;;;-1.77;94.61
74169;BME280;62523;53.336;83.690;2022-11-06T12:26:31;99450.31;;;-1.85;94.22
74169;BME280;62523;53.336;83.690;2022-11-06T12:31:46;99461.50;;;-1.81;92.70
74169;BME280;62523;53.336;83.690;2022-11-06T12:42:28;99472.72;;;-1.86;91.52
74169;BME280;62523;53.336;83.690;2022-11-06T12:47:55;99477.06;;;-1.98;91.82
74169;BME280;62523;53.336;83.690;2022-11-06T12:53:15;99476.16;;;-1.90;91.54
74169;BME280;62523;53.336;83.690;2022-11-06T12:59:00;99490.81;;;-1.93;90.90
74169;BME280;62523;53.336;83.690;2022-11-06T13:09:36;99498.53;;;-1.82;86.97
74169;BME280;62523;53.336;83.690;2022-11-06T13:15:05;99501.16;;;-1.99;84.88
74169;BME280;62523;53.336;83.690;2022-11-06T13:30:23;99512.31;;;-1.90;79.78
74169;BME280;62523;53.336;83.690;2022-11-06T13:35:25;99502.00;;;-1.87;78.81
74169;BME280;62523;53.336;83.690;2022-11-06T13:40:40;99512.31;;;-1.87;77.64
74169;BME280;62523;53.336;83.690;2022-11-06T13:45:54;99508.00;;;-1.83;76.27
74169;BME280;62523;53.336;83.690;2022-11-06T13:50:58;99503.66;;;-1.67;74.55
74169;BME280;62523;53.336;83.690;2022-11-06T14:01:32;99513.91;;;-1.50;73.53
74169;BME280;62523;53.336;83.690;2022-11-06T14:06:40;99520.78;;;-1.41;72.92
74169;BME280;62523;53.336;83.690;2022-11-06T14:11:44;99531.06;;;-1.37;72.42
74169;BME280;62523;53.336;83.690;2022-11-06T14:17:10;99534.47;;;-1.27;71.58
74169;BME280;62523;53.336;83.690;2022-11-06T14:32:32;99534.47;;;-1.26;72.13
74169;BME280;62523;53.336;83.690;2022-11-06T14:37:43;99546.53;;;-1.25;72.13
74169;BME280;62523;53.336;83.690;2022-11-06T14:42:46;99540.53;;;-1.33;72.40
74169;BME280;62523;53.336;83.690;2022-11-06T14:47:53;99537.94;;;-1.33;72.61
74169;BME280;62523;53.336;83.690;2022-11-06T14:53:18;99532.81;;;-1.47;73.33
74169;BME280;62523;53.336;83.690;2022-11-06T14:58:30;99533.69;;;-1.43;73.14
74169;BME280;62523;53.336;83.690;2022-11-06T15:03:49;99548.38;;;-1.54;74.04
74169;BME280;62523;53.336;83.690;2022-11-06T15:09:04;99554.34;;;-1.40;73.33
74169;BME280;62523;53.336;83.690;2022-11-06T15:19:13;99551.75;;;-1.35;73.29
74169;BME280;62523;53.336;83.690;2022-11-06T15:24:24;99550.03;;;-1.41;74.17
74169;BME280;62523;53.336;83.690;2022-11-06T15:29:31;99553.47;;;-1.36;73.54
74169;BME280;62523;53.336;83.690;2022-11-06T15:34:42;99561.25;;;-1.39;73.67
74169;BME280;62523;53.336;83.690;2022-11-06T15:39:52;99562.06;;;-1.34;73.95
74169;BME280;62523;53.336;83.690;2022-11-06T15:50:18;99567.22;;;-1.26;73.77
74169;BME280;62523;53.336;83.690;2022-11-06T15:55:31;99557.72;;;-1.26;73.48
74169;BME280;62523;53.336;83.690;2022-11-06T16:00:34;99576.66;;;-1.24;73.96
74169;BME280;62523;53.336;83.690;2022-11-06T16:05:39;99580.91;;;-1.10;74.18
74169;BME280;62523;53.336;83.690;2022-11-06T16:10:41;99578.41;;;-1.22;74.30
74169;BME280;62523;53.336;83.690;2022-11-06T16:20:50;99576.66;;;-1.25;74.79
74169;BME280;62523;53.336;83.690;2022-11-06T16:25:57;99574.97;;;-1.26;74.63
74169;BME280;62523;53.336;83.690;2022-11-06T16:31:05;99576.66;;;-1.19;75.15
74169;BME280;62523;53.336;83.690;2022-11-06T16:36:11;99585.28;;;-1.21;74.80
74169;BME280;62523;53.336;83.690;2022-11-06T16:41:16;99585.28;;;-1.21;74.97
74169;BME280;62523;53.336;83.690;2022-11-06T16:57:31;99581.00;;;-1.22;75.15
74169;BME280;62523;53.336;83.690;2022-11-06T17:02:36;99585.25;;;-1.17;74.70
74169;BME280;62523;53.336;83.690;2022-11-06T17:07:38;99588.69;;;-1.16;74.61
74169;BME280;62523;53.336;83.690;2022-11-06T17:12:40;99588.69;;;-1.15;74.44
74169;BME280;62523;53.336;83.690;2022-11-06T17:17:41;99576.69;;;-1.27;74.39
74169;BME280;62523;53.336;83.690;2022-11-06T17:22:44;99576.66;;;-1.16;74.07
74169;BME280;62523;53.336;83.690;2022-11-06T17:27:46;99596.47;;;-1.19;74.38
74169;BME280;62523;53.336;83.690;2022-11-06T17:32:47;99593.88;;;-1.21;74.46
74169;BME280;62523;53.336;83.690;2022-11-06T17:37:48;99596.47;;;-1.18;74.46
74169;BME280;62523;53.336;83.690;2022-11-06T17:42:51;99596.41;;;-1.02;74.60
74169;BME280;62523;53.336;83.690;2022-11-06T17:47:52;99600.81;;;-1.25;74.92
74169;BME280;62523;53.336;83.690;2022-11-06T17:52:54;99593.91;;;-1.22;74.43
74169;BME280;62523;53.336;83.690;2022-11-06T17:57:55;99601.66;;;-1.18;74.61
74169;BME280;62523;53.336;83.690;2022-11-06T18:02:56;99586.16;;;-1.24;74.88
74169;BME280;62523;53.336;83.690;2022-11-06T18:07:57;99596.47;;;-1.19;74.33
74169;BME280;62523;53.336;83.690;2022-11-06T18:12:59;99599.91;;;-1.16;74.45
74169;BME280;62523;53.336;83.690;2022-11-06T18:18:01;99599.94;;;-1.20;74.61
74169;BME280;62523;53.336;83.690;2022-11-06T18:23:02;99599.06;;;-1.18;74.27
74169;BME280;62523;53.336;83.690;2022-11-06T18:28:04;99596.47;;;-1.13;74.33
74169;BME280;62523;53.336;83.690;2022-11-06T18:33:05;99597.34;;;-1.20;74.47
74169;BME280;62523;53.336;83.690;2022-11-06T18:38:07;99582.75;;;-1.32;74.80
74169;BME280;62523;53.336;83.690;2022-11-06T18:43:09;99610.28;;;-1.20;74.90
74169;BME280;62523;53.336;83.690;2022-11-06T18:48:11;99601.66;;;-1.22;74.85
74169;BME280;62523;53.336;83.690;2022-11-06T18:53:12;99606.78;;;-1.16;74.92
74169;BME280;62523;53.336;83.690;2022-11-06T18:58:14;99595.63;;;-1.20;74.78
74169;BME280;62523;53.336;83.690;2022-11-06T19:03:16;99598.19;;;-1.17;74.85
74169;BME280;62523;53.336;83.690;2022-11-06T19:08:18;99600.78;;;-1.20;74.52
74169;BME280;62523;53.336;83.690;2022-11-06T19:13:19;99614.56;;;-1.19;74.44
74169;BME280;62523;53.336;83.690;2022-11-06T19:18:20;99612.81;;;-1.11;74.57
74169;BME280;62523;53.336;83.690;2022-11-06T19:23:21;99612.00;;;-1.18;74.80
74169;BME280;62523;53.336;83.690;2022-11-06T19:28:23;99605.94;;;-1.14;74.55
74169;BME280;62523;53.336;83.690;2022-11-06T19:33:24;99606.78;;;-1.07;74.69
74169;BME280;62523;53.336;83.690;2022-11-06T19:38:25;99609.41;;;-1.19;74.41
74169;BME280;62523;53.336;83.690;2022-11-06T19:43:27;99608.50;;;-1.11;74.79
74169;BME280;62523;53.336;83.690;2022-11-06T19:48:29;99609.38;;;-1.16;74.16
74169;BME280;62523;53.336;83.690;2022-11-06T19:53:31;99619.69;;;-1.10;74.50
74169;BME280;62523;53.336;83.690;2022-11-06T19:58:34;99615.44;;;-1.16;74.43
74169;BME280;62523;53.336;83.690;2022-11-06T20:03:37;99618.00;;;-1.13;74.01
74169;BME280;62523;53.336;83.690;2022-11-06T20:08:46;99622.28;;;-1.10;74.16
74169;BME280;62523;53.336;83.690;2022-11-06T20:13:52;99611.09;;;-1.18;74.60
74169;BME280;62523;53.336;83.690;2022-11-06T20:18:54;99624.91;;;-1.19;74.67
74169;BME280;62523;53.336;83.690;2022-11-06T20:23:56;99625.78;;;-1.20;74.66
74169;BME280;62523;53.336;83.690;2022-11-06T20:28:57;99621.44;;;-1.15;74.46
74169;BME280;62523;53.336;83.690;2022-11-06T20:34:01;99617.09;;;-1.10;73.76
74169;BME280;62523;53.336;83.690;2022-11-06T20:39:02;99630.09;;;-1.18;74.60
74169;BME280;62523;53.336;83.690;2022-11-06T20:44:04;99626.66;;;-1.20;75.51
74169;BME280;62523;53.336;83.690;2022-11-06T20:49:05;99633.53;;;-1.24;75.55
74169;BME280;62523;53.336;83.690;2022-11-06T20:54:07;99637.00;;;-1.29;76.41
74169;BME280;62523;53.336;83.690;2022-11-06T20:59:08;99631.00;;;-1.36;76.78
74169;BME280;62523;53.336;83.690;2022-11-06T21:04:10;99640.44;;;-1.22;76.73
74169;BME280;62523;53.336;83.690;2022-11-06T21:09:12;99636.16;;;-1.30;77.25
74169;BME280;62523;53.336;83.690;2022-11-06T21:14:13;99632.69;;;-1.30;76.96
74169;BME280;62523;53.336;83.690;2022-11-06T21:19:14;99634.41;;;-1.26;77.05
74169;BME280;62523;53.336;83.690;2022-11-06T21:24:15;99636.97;;;-1.23;76.32
74169;BME280;62523;53.336;83.690;2022-11-06T21:29:17;99632.66;;;-1.21;75.84
74169;BME280;62523;53.336;83.690;2022-11-06T21:34:18;99642.19;;;-1.26;76.75
74169;BME280;62523;53.336;83.690;2022-11-06T21:39:19;99644.75;;;-1.28;76.10
74169;BME280;62523;53.336;83.690;2022-11-06T21:44:21;99636.97;;;-1.23;76.31
74169;BME280;62523;53.336;83.690;2022-11-06T21:49:22;99644.78;;;-1.31;76.61
74169;BME280;62523;53.336;83.690;2022-11-06T21:54:23;99642.19;;;-1.26;77.03
74169;BME280;62523;53.336;83.690;2022-11-06T22:00:03;99651.69;;;-1.37;77.45
74169;BME280;62523;53.336;83.690;2022-11-06T22:05:05;99648.19;;;-1.27;77.13
74169;BME280;62523;53.336;83.690;2022-11-06T22:10:06;99655.13;;;-1.35;77.86
74169;BME280;62523;53.336;83.690;2022-11-06T22:15:07;99650.81;;;-1.42;78.92
74169;BME280;62523;53.336;83.690;2022-11-06T22:20:09;99643.94;;;-1.43;79.32
74169;BME280;62523;53.336;83.690;2022-11-06T22:25:11;99643.09;;;-1.49;80.49
74169;BME280;62523;53.336;83.690;2022-11-06T22:30:12;99654.31;;;-1.56;81.29
74169;BME280;62523;53.336;83.690;2022-11-06T22:35:13;99652.59;;;-1.52;81.60
74169;BME280;62523;53.336;83.690;2022-11-06T22:40:15;99650.88;;;-1.55;82.08
74169;BME280;62523;53.336;83.690;2022-11-06T22:45:16;99656.88;;;-1.48;81.55
74169;BME280;62523;53.336;83.690;2022-11-06T22:50:17;99649.13;;;-1.45;81.76
74169;BME280;62523;53.336;83.690;2022-11-06T22:55:18;99650.84;;;-1.47;81.45
74169;BME280;62523;53.336;83.690;2022-11-06T23:00:21;99659.44;;;-1.53;81.74
74169;BME280;62523;53.336;83.690;2022-11-06T23:05:22;99667.22;;;-1.60;82.06
74169;BME280;62523;53.336;83.690;2022-11-06T23:10:24;99665.50;;;-1.54;81.50
74169;BME280;62523;53.336;83.690;2022-11-06T23:15:32;99670.66;;;-1.52;82.19
74169;BME280;62523;53.336;83.690;2022-11-06T23:20:33;99673.22;;;-1.45;82.27
74169;BME280;62523;53.336;83.690;2022-11-06T23:25:35;99674.06;;;-1.35;81.47
74169;BME280;62523;53.336;83.690;2022-11-06T23:30:36;99677.53;;;-1.47;82.32
74169;BME280;62523;53.336;83.690;2022-11-06T23:35:37;99674.97;;;-1.51;82.44
74169;BME280;62523;53.336;83.690;2022-11-06T23:40:38;99671.53;;;-1.50;82.33
74169;BME280;62523;53.336;83.690;2022-11-06T23:45:40;99666.34;;;-1.58;82.20
74169;BME280;62523;53.336;83.690;2022-11-06T23:50:49;99674.97;;;-1.54;82.26
74169;BME280;62523;53.336;83.690;2022-11-06T23:55:51;99666.38;;;-1.55;82.59
